createdAt,value
2023-02-09T00:00:12.316Z,79.69
2023-02-09T00:01:44.272Z,79.95
2023-02-09T00:03:16.322Z,80.14
2023-02-09T00:04:48.443Z,79.88
2023-02-09T00:06:22.089Z,79.89
2023-02-09T00:07:54.135Z,79.89
2023-02-09T00:09:26.176Z,79.89
2023-02-09T00:10:58.287Z,79.73
2023-02-09T00:12:48.497Z,79.56
2023-02-09T00:14:22.057Z,79.43
2023-02-09T00:15:57.073Z,79.46
2023-02-09T00:17:29.031Z,79.27
2023-02-09T00:19:01.061Z,79.19
2023-02-09T00:20:33.036Z,79.02
2023-02-09T00:22:05.096Z,79.00
2023-02-09T00:23:39.492Z,78.99
2023-02-09T00:25:11.563Z,78.91
2023-02-09T00:26:43.813Z,79.06
2023-02-09T00:28:15.965Z,79.13
2023-02-09T00:29:48.110Z,79.31
2023-02-09T00:31:20.266Z,79.69
2023-02-09T00:32:52.309Z,79.86
2023-02-09T00:34:24.416Z,80.12
2023-02-09T00:35:59.424Z,80.15
2023-02-09T00:37:31.614Z,80.20
2023-02-09T00:39:03.734Z,80.58
2023-02-09T00:40:35.908Z,80.64
2023-02-09T00:42:08.044Z,80.64
2023-02-09T00:43:40.124Z,80.73
2023-02-09T00:45:12.247Z,80.83
2023-02-09T00:46:44.339Z,80.92
2023-02-09T00:48:16.406Z,80.93
2023-02-09T00:49:48.460Z,80.94
2023-02-09T00:52:52.260Z,80.80
2023-02-09T00:54:24.792Z,80.84
2023-02-09T00:55:57.315Z,80.73
2023-02-09T00:57:29.356Z,80.63
2023-02-09T00:59:01.437Z,80.59
2023-02-09T01:00:33.574Z,80.71
2023-02-09T01:02:05.579Z,80.56
2023-02-09T01:03:37.575Z,80.32
2023-02-09T01:05:09.868Z,80.12
2023-02-09T01:06:42.021Z,80.11
2023-02-09T01:08:14.163Z,80.02
2023-02-09T01:09:46.268Z,80.25
2023-02-09T01:11:18.320Z,80.24
2023-02-09T01:12:50.570Z,80.49
2023-02-09T01:14:22.755Z,80.69
2023-02-09T01:15:54.837Z,80.72
2023-02-09T01:17:26.918Z,80.82
2023-02-09T01:19:03.313Z,81.05
2023-02-09T01:22:16.808Z,81.19
2023-02-09T01:23:49.489Z,80.95
2023-02-09T01:25:21.608Z,80.87
2023-02-09T01:26:53.663Z,80.88
2023-02-09T01:28:25.693Z,80.81
2023-02-09T01:29:57.794Z,80.35
2023-02-09T01:31:35.296Z,80.11
2023-02-09T01:33:07.470Z,80.06
2023-02-09T01:34:39.554Z,80.08
2023-02-09T01:36:11.567Z,80.11
2023-02-09T01:37:43.537Z,79.67
2023-02-09T01:39:15.917Z,79.62
2023-02-09T01:40:49.808Z,79.80
2023-02-09T01:42:22.019Z,79.57
2023-02-09T01:44:06.020Z,79.84
2023-02-09T01:45:54.917Z,79.51
2023-02-09T01:47:26.969Z,79.72
2023-02-09T01:49:07.229Z,79.76
2023-02-09T01:52:14.951Z,79.94
2023-02-09T01:53:47.411Z,79.94
2023-02-09T01:55:23.470Z,80.03
2023-02-09T01:57:02.333Z,80.24
2023-02-09T01:58:34.712Z,80.32
2023-02-09T02:00:12.828Z,80.29
2023-02-09T02:01:45.165Z,80.26
2023-02-09T02:03:20.398Z,80.21
2023-02-09T02:04:53.022Z,80.31
2023-02-09T02:06:25.203Z,80.17
2023-02-09T02:08:05.164Z,80.02
2023-02-09T02:09:37.915Z,80.23
2023-02-09T02:11:10.326Z,80.11
2023-02-09T02:12:42.364Z,80.20
2023-02-09T02:14:35.914Z,80.12
2023-02-09T02:16:32.515Z,80.26
2023-02-09T02:18:21.763Z,80.15
2023-02-09T02:21:29.368Z,79.95
2023-02-09T02:23:18.071Z,79.75
2023-02-09T02:25:17.903Z,79.68
2023-02-09T02:26:59.323Z,79.60
2023-02-09T02:29:20.292Z,79.57
2023-02-09T02:31:36.057Z,79.81
2023-02-09T02:33:37.446Z,79.79
2023-02-09T02:35:37.968Z,79.89
2023-02-09T02:37:33.585Z,80.14
2023-02-09T02:39:26.453Z,80.38
2023-02-09T02:41:10.308Z,80.53
2023-02-09T02:43:03.096Z,80.51
2023-02-09T02:44:36.920Z,80.83
2023-02-09T02:46:21.570Z,80.79
2023-02-09T02:48:01.336Z,80.90
2023-02-09T02:49:43.216Z,81.13
2023-02-09T02:51:25.477Z,81.14
2023-02-09T02:53:00.359Z,81.31
2023-02-09T02:54:35.911Z,81.33
2023-02-09T02:56:12.791Z,81.49
2023-02-09T02:57:49.296Z,81.33
2023-02-09T02:59:25.893Z,81.33
2023-02-09T03:00:59.218Z,81.22
2023-02-09T03:02:34.519Z,81.18
2023-02-09T03:04:07.945Z,81.25
2023-02-09T03:05:40.020Z,80.95
2023-02-09T03:07:12.190Z,81.11
2023-02-09T03:09:02.154Z,81.14
2023-02-09T03:10:39.999Z,81.19
2023-02-09T03:12:39.779Z,80.99
2023-02-09T03:14:11.758Z,80.91
2023-02-09T03:15:58.952Z,81.08
2023-02-09T03:18:02.422Z,80.93
2023-02-09T03:19:37.272Z,80.79
2023-02-09T03:21:20.776Z,80.92
2023-02-09T03:22:59.622Z,80.86
2023-02-09T03:24:42.986Z,80.78
2023-02-09T03:26:18.955Z,80.65
2023-02-09T03:28:03.974Z,80.66
2023-02-09T03:29:38.093Z,80.20
2023-02-09T03:31:10.392Z,79.97
2023-02-09T03:32:44.788Z,80.05
2023-02-09T03:34:17.334Z,79.92
2023-02-09T03:35:51.941Z,79.80
2023-02-09T03:37:24.310Z,79.93
2023-02-09T03:38:57.384Z,80.00
2023-02-09T03:40:29.548Z,80.01
2023-02-09T03:42:01.584Z,79.90
2023-02-09T03:43:52.030Z,80.21
2023-02-09T03:45:24.044Z,80.65
2023-02-09T03:47:01.817Z,80.77
2023-02-09T03:48:35.571Z,80.98
2023-02-09T03:50:07.908Z,80.84
2023-02-09T03:51:39.971Z,80.64
2023-02-09T03:53:12.017Z,80.65
2023-02-09T03:54:44.161Z,80.58
2023-02-09T03:56:16.397Z,80.67
2023-02-09T03:57:48.375Z,80.68
2023-02-09T03:59:21.682Z,80.44
2023-02-09T04:00:53.672Z,80.58
2023-02-09T04:02:25.838Z,80.55
2023-02-09T04:03:58.959Z,80.83
2023-02-09T04:05:30.942Z,80.82
2023-02-09T04:07:03.894Z,80.57
2023-02-09T04:08:36.320Z,80.65
2023-02-09T04:10:08.877Z,80.55
2023-02-09T04:11:40.940Z,80.53
2023-02-09T04:13:12.961Z,80.40
2023-02-09T04:14:45.011Z,80.55
2023-02-09T04:16:18.583Z,80.52
2023-02-09T04:17:50.945Z,80.43
2023-02-09T04:19:23.033Z,80.55
2023-02-09T04:20:55.105Z,80.35
2023-02-09T04:22:27.078Z,80.12
2023-02-09T04:25:32.215Z,79.68
2023-02-09T04:27:04.355Z,79.78
2023-02-09T04:28:36.398Z,79.58
2023-02-09T04:30:09.288Z,79.42
2023-02-09T04:31:41.375Z,79.23
2023-02-09T04:33:13.571Z,79.55
2023-02-09T04:34:45.634Z,79.40
2023-02-09T04:36:17.827Z,79.10
2023-02-09T04:37:49.953Z,79.04
2023-02-09T04:39:22.007Z,79.29
2023-02-09T04:40:55.179Z,79.26
2023-02-09T04:42:27.185Z,79.25
2023-02-09T04:43:59.268Z,79.46
2023-02-09T04:45:31.411Z,79.57
2023-02-09T04:47:03.769Z,79.78
2023-02-09T04:48:35.780Z,79.59
2023-02-09T04:50:08.019Z,79.77
2023-02-09T04:51:40.117Z,80.04
2023-02-09T04:53:12.604Z,80.52
2023-02-09T04:54:44.697Z,80.21
2023-02-09T04:56:17.403Z,80.28
2023-02-09T04:58:08.201Z,80.54
2023-02-09T04:59:42.103Z,80.61
2023-02-09T05:01:21.180Z,80.35
2023-02-09T05:02:54.860Z,80.41
2023-02-09T05:04:27.073Z,80.40
2023-02-09T05:06:01.544Z,80.60
2023-02-09T05:07:33.676Z,80.57
2023-02-09T05:09:05.706Z,80.88
2023-02-09T05:10:37.779Z,80.97
2023-02-09T05:12:10.530Z,81.18
2023-02-09T05:13:43.052Z,81.01
2023-02-09T05:15:15.410Z,80.98
2023-02-09T05:16:47.611Z,81.04
2023-02-09T05:18:19.735Z,81.14
2023-02-09T05:19:51.656Z,80.95
2023-02-09T05:21:23.691Z,80.83
2023-02-09T05:22:55.652Z,81.06
2023-02-09T05:24:27.762Z,80.98
2023-02-09T05:25:59.746Z,81.03
2023-02-09T05:27:31.764Z,81.02
2023-02-09T05:29:04.556Z,81.25
2023-02-09T05:30:37.885Z,81.17
2023-02-09T05:32:09.961Z,81.28
2023-02-09T05:33:41.964Z,81.17
2023-02-09T05:35:14.200Z,81.60
2023-02-09T05:36:47.869Z,81.46
2023-02-09T05:38:19.930Z,81.65
2023-02-09T05:39:52.141Z,81.36
2023-02-09T05:41:42.972Z,81.13
2023-02-09T05:43:15.013Z,81.19
2023-02-09T05:44:48.867Z,81.14
2023-02-09T05:46:21.034Z,81.29
2023-02-09T05:47:53.188Z,81.45
2023-02-09T05:49:25.216Z,81.63
2023-02-09T05:50:57.232Z,81.43
2023-02-09T05:52:29.350Z,81.57
2023-02-09T05:54:01.549Z,81.67
2023-02-09T05:55:33.636Z,81.65
2023-02-09T05:57:06.339Z,81.85
2023-02-09T05:58:38.439Z,81.69
2023-02-09T06:00:12.605Z,81.88
2023-02-09T06:01:45.158Z,81.89
2023-02-09T06:03:17.293Z,81.57
2023-02-09T06:04:49.590Z,81.64
2023-02-09T06:06:21.725Z,81.69
2023-02-09T06:07:54.117Z,81.88
2023-02-09T06:09:26.437Z,81.85
2023-02-09T06:10:58.470Z,82.04
2023-02-09T06:12:30.561Z,82.04
2023-02-09T06:14:02.823Z,82.39
2023-02-09T06:15:35.058Z,82.24
2023-02-09T06:17:07.275Z,82.46
2023-02-09T06:18:39.339Z,82.57
2023-02-09T06:20:12.218Z,82.63
2023-02-09T06:21:44.848Z,82.63
2023-02-09T06:23:16.879Z,82.67
2023-02-09T06:24:48.958Z,82.59
2023-02-09T06:26:23.710Z,82.75
2023-02-09T06:27:58.768Z,82.75
2023-02-09T06:29:31.611Z,82.55
2023-02-09T06:31:03.828Z,82.57
2023-02-09T06:32:35.925Z,82.47
2023-02-09T06:34:09.091Z,82.50
2023-02-09T06:35:41.164Z,82.44
2023-02-09T06:37:13.326Z,82.42
2023-02-09T06:38:45.503Z,82.44
2023-02-09T06:40:17.604Z,82.74
2023-02-09T06:41:49.624Z,82.45
2023-02-09T06:43:21.848Z,82.56
2023-02-09T06:44:54.025Z,82.49
2023-02-09T06:46:26.091Z,82.45
2023-02-09T06:47:58.237Z,82.13
2023-02-09T06:49:30.624Z,81.87
2023-02-09T06:51:02.849Z,81.68
2023-02-09T06:52:34.976Z,81.53
2023-02-09T06:54:07.032Z,81.30
2023-02-09T06:55:39.323Z,81.56
2023-02-09T06:57:11.402Z,81.51
2023-02-09T06:58:43.475Z,81.42
2023-02-09T07:00:16.514Z,81.37
2023-02-09T07:01:54.723Z,81.27
2023-02-09T07:03:27.194Z,81.29
2023-02-09T07:04:59.367Z,81.32
2023-02-09T07:06:31.525Z,81.33
2023-02-09T07:08:04.027Z,81.14
2023-02-09T07:09:36.171Z,81.35
2023-02-09T07:11:11.024Z,81.21
2023-02-09T07:12:45.816Z,81.14
2023-02-09T07:14:20.528Z,81.16
2023-02-09T07:15:57.477Z,81.17
2023-02-09T07:17:32.540Z,81.08
2023-02-09T07:19:04.603Z,80.92
2023-02-09T07:20:36.660Z,80.73
2023-02-09T07:22:08.800Z,80.59
2023-02-09T07:23:40.903Z,80.41
2023-02-09T07:25:13.108Z,80.01
2023-02-09T07:26:45.175Z,79.76
2023-02-09T07:29:50.348Z,78.59
2023-02-09T07:31:22.771Z,78.26
2023-02-09T07:32:55.002Z,77.93
2023-02-09T07:34:27.052Z,77.25
2023-02-09T07:35:59.411Z,76.54
2023-02-09T07:37:31.953Z,76.15
2023-02-09T07:39:04.169Z,76.06
2023-02-09T07:40:38.515Z,75.61
2023-02-09T07:42:10.671Z,75.04
2023-02-09T07:43:43.119Z,74.07
2023-02-09T07:45:15.862Z,73.78
2023-02-09T07:46:48.062Z,73.93
2023-02-09T07:48:20.216Z,73.73
2023-02-09T07:49:52.272Z,72.90
2023-02-09T07:51:25.683Z,71.64
2023-02-09T07:52:57.709Z,71.64
2023-02-09T07:54:29.771Z,70.93
2023-02-09T07:56:01.940Z,71.22
2023-02-09T07:57:33.888Z,70.39
2023-02-09T07:59:06.861Z,70.32
2023-02-09T08:00:38.908Z,69.97
2023-02-09T08:02:19.126Z,70.27
2023-02-09T08:03:51.182Z,69.23
2023-02-09T08:06:08.038Z,69.21
2023-02-09T08:07:40.616Z,68.11
2023-02-09T08:09:15.666Z,68.24
2023-02-09T08:10:47.711Z,69.01
2023-02-09T08:12:21.030Z,68.66
2023-02-09T08:13:54.865Z,68.33
2023-02-09T08:15:39.147Z,68.52
2023-02-09T08:17:24.541Z,68.88
2023-02-09T08:19:00.097Z,69.15
2023-02-09T08:20:32.641Z,67.69
2023-02-09T08:22:07.835Z,67.33
2023-02-09T08:23:40.670Z,67.37
2023-02-09T08:25:17.438Z,68.77
2023-02-09T08:26:49.728Z,68.50
2023-02-09T08:28:31.850Z,67.29
2023-02-09T08:30:11.692Z,67.79
2023-02-09T08:31:43.860Z,67.00
2023-02-09T08:33:16.326Z,66.69
2023-02-09T08:34:48.479Z,67.06
2023-02-09T08:36:21.214Z,67.92
2023-02-09T08:37:53.505Z,66.67
2023-02-09T08:39:25.620Z,66.91
2023-02-09T08:40:57.681Z,67.53
2023-02-09T08:42:29.739Z,67.53
2023-02-09T08:44:02.131Z,67.12
2023-02-09T08:45:39.824Z,66.76
2023-02-09T08:47:12.078Z,66.14
2023-02-09T08:48:45.644Z,66.63
2023-02-09T08:50:17.617Z,65.51
2023-02-09T08:51:49.657Z,65.59
2023-02-09T08:53:21.770Z,66.01
2023-02-09T08:54:54.453Z,66.56
2023-02-09T08:56:26.509Z,66.34
2023-02-09T08:57:58.646Z,65.54
2023-02-09T08:59:30.956Z,65.46
2023-02-09T09:01:03.521Z,65.74
2023-02-09T09:02:36.223Z,65.18
2023-02-09T09:04:08.347Z,64.10
2023-02-09T09:05:40.578Z,64.48
2023-02-09T09:07:13.044Z,65.73
2023-02-09T09:08:45.441Z,64.46
2023-02-09T09:10:17.976Z,64.65
2023-02-09T09:11:50.124Z,64.92
2023-02-09T09:13:24.524Z,65.67
2023-02-09T09:14:56.805Z,64.12
2023-02-09T09:16:28.895Z,62.58
2023-02-09T09:18:01.030Z,63.08
2023-02-09T09:19:33.074Z,63.91
2023-02-09T09:21:05.514Z,64.56
2023-02-09T09:22:37.604Z,63.86
2023-02-09T09:24:09.815Z,64.07
2023-02-09T09:25:42.645Z,63.97
2023-02-09T09:27:14.944Z,64.39
2023-02-09T09:28:50.462Z,63.60
2023-02-09T09:30:22.854Z,60.78
2023-02-09T09:31:55.119Z,61.72
2023-02-09T09:33:27.354Z,62.72
2023-02-09T09:34:59.869Z,62.20
2023-02-09T09:36:32.213Z,62.76
2023-02-09T09:38:05.071Z,63.68
2023-02-09T09:39:37.122Z,63.56
2023-02-09T09:41:25.349Z,60.97
2023-02-09T09:43:05.667Z,61.35
2023-02-09T09:44:42.117Z,60.41
2023-02-09T09:46:20.903Z,59.38
2023-02-09T09:47:53.212Z,59.94
2023-02-09T09:49:27.842Z,58.84
2023-02-09T09:51:07.424Z,60.31
2023-02-09T09:52:41.406Z,62.19
2023-02-09T09:54:16.897Z,62.81
2023-02-09T09:55:52.480Z,61.32
2023-02-09T09:57:31.737Z,62.17
2023-02-09T09:59:04.025Z,62.47
2023-02-09T10:00:40.064Z,61.92
2023-02-09T10:02:27.502Z,61.40
2023-02-09T10:04:01.783Z,61.46
2023-02-09T10:05:39.373Z,60.92
2023-02-09T10:07:19.585Z,60.38
2023-02-09T10:09:02.082Z,59.71
2023-02-09T10:10:39.681Z,61.66
2023-02-09T10:12:34.648Z,62.35
2023-02-09T10:14:07.176Z,61.31
2023-02-09T10:15:39.522Z,58.14
2023-02-09T10:17:11.587Z,59.21
2023-02-09T10:18:46.299Z,58.53
2023-02-09T10:20:18.578Z,58.87
2023-02-09T10:21:50.826Z,59.62
2023-02-09T10:23:47.678Z,58.51
2023-02-09T10:25:35.086Z,58.62
2023-02-09T10:27:16.209Z,59.61
2023-02-09T10:28:54.076Z,58.53
2023-02-09T10:30:29.119Z,57.98
2023-02-09T10:33:42.661Z,59.55
2023-02-09T10:35:27.324Z,58.33
2023-02-09T10:37:19.362Z,57.35
2023-02-09T10:38:52.129Z,57.42
2023-02-09T10:40:29.475Z,56.00
2023-02-09T10:42:32.203Z,56.38
2023-02-09T10:44:36.350Z,58.57
2023-02-09T10:46:15.697Z,57.69
2023-02-09T10:48:02.598Z,58.78
2023-02-09T10:49:36.473Z,57.55
2023-02-09T10:51:15.411Z,56.71
2023-02-09T10:53:02.257Z,57.75
2023-02-09T10:54:34.418Z,57.93
2023-02-09T10:56:19.197Z,58.08
2023-02-09T10:57:51.375Z,55.70
2023-02-09T10:59:25.155Z,56.73
2023-02-09T11:01:09.471Z,56.43
2023-02-09T11:02:52.724Z,55.25
2023-02-09T11:04:27.418Z,55.89
2023-02-09T11:06:10.350Z,54.60
2023-02-09T11:07:42.572Z,58.09
2023-02-09T11:09:17.969Z,56.75
2023-02-09T11:10:54.284Z,55.81
2023-02-09T11:12:27.985Z,56.60
2023-02-09T11:14:00.450Z,58.12
2023-02-09T11:15:39.129Z,57.94
2023-02-09T11:17:15.490Z,58.24
2023-02-09T11:18:58.661Z,58.58
2023-02-09T11:20:38.914Z,58.98
2023-02-09T11:22:52.300Z,56.88
2023-02-09T11:24:47.444Z,56.96
2023-02-09T11:26:39.842Z,57.85
2023-02-09T11:28:31.305Z,57.72
2023-02-09T11:30:09.402Z,57.02
2023-02-09T11:31:48.841Z,55.43
2023-02-09T11:33:51.732Z,54.94
2023-02-09T11:35:27.248Z,55.35
2023-02-09T11:37:27.728Z,55.46
2023-02-09T11:39:02.339Z,57.20
2023-02-09T11:40:42.631Z,56.35
2023-02-09T11:42:37.342Z,54.83
2023-02-09T11:44:17.473Z,55.66
2023-02-09T11:45:51.462Z,55.95
2023-02-09T11:47:42.386Z,57.14
2023-02-09T11:49:19.231Z,57.21
2023-02-09T11:51:12.394Z,58.19
2023-02-09T11:52:53.381Z,57.35
2023-02-09T11:54:28.968Z,56.65
2023-02-09T11:56:04.043Z,56.63
2023-02-09T11:57:50.031Z,56.76
2023-02-09T11:59:34.905Z,57.36
2023-02-09T12:01:25.572Z,57.81
2023-02-09T12:03:08.057Z,54.92
2023-02-09T12:05:01.567Z,54.98
2023-02-09T12:06:40.590Z,54.56
2023-02-09T12:08:27.317Z,55.81
2023-02-09T12:10:11.490Z,55.59
2023-02-09T12:12:20.020Z,54.49
2023-02-09T12:14:17.138Z,56.64
2023-02-09T12:15:57.965Z,56.47
2023-02-09T12:17:51.143Z,57.53
2023-02-09T12:19:46.712Z,54.82
2023-02-09T12:21:32.767Z,54.07
2023-02-09T12:23:26.532Z,55.79
2023-02-09T12:25:23.051Z,54.90
2023-02-09T12:26:56.828Z,54.28
2023-02-09T12:28:31.688Z,56.69
2023-02-09T12:32:04.759Z,58.01
2023-02-09T12:33:39.133Z,58.78
2023-02-09T12:35:26.220Z,57.92
2023-02-09T12:37:19.694Z,59.13
2023-02-09T12:38:56.552Z,57.06
2023-02-09T12:40:37.313Z,57.48
2023-02-09T12:42:09.260Z,58.45
2023-02-09T12:43:41.982Z,56.76
2023-02-09T12:45:36.380Z,56.27
2023-02-09T12:47:42.160Z,56.22
2023-02-09T12:49:14.296Z,56.61
2023-02-09T12:50:54.288Z,58.10
2023-02-09T12:52:26.279Z,58.88
2023-02-09T12:53:58.312Z,58.38
2023-02-09T12:55:30.910Z,58.09
2023-02-09T12:57:20.773Z,57.53
2023-02-09T12:58:52.762Z,58.47
2023-02-09T13:00:32.267Z,58.30
2023-02-09T13:02:04.262Z,58.17
2023-02-09T13:03:47.879Z,59.29
2023-02-09T13:05:34.054Z,58.31
2023-02-09T13:07:12.429Z,58.31
2023-02-09T13:08:53.718Z,59.45
2023-02-09T13:10:47.338Z,58.27
2023-02-09T13:12:24.072Z,57.44
2023-02-09T13:14:03.587Z,58.45
2023-02-09T13:16:01.791Z,57.91
2023-02-09T13:18:12.409Z,58.36
2023-02-09T13:20:29.438Z,59.01
2023-02-09T13:22:28.644Z,58.74
2023-02-09T13:24:07.706Z,58.14
2023-02-09T13:25:40.532Z,58.26
2023-02-09T13:27:24.172Z,58.67
2023-02-09T13:29:19.376Z,59.24
2023-02-09T13:30:53.072Z,57.63
2023-02-09T13:32:50.905Z,58.46
2023-02-09T13:34:33.253Z,59.28
2023-02-09T13:36:25.449Z,59.44
2023-02-09T13:37:59.785Z,59.55
2023-02-09T13:39:37.802Z,59.73
2023-02-09T13:41:25.739Z,59.93
2023-02-09T13:43:29.776Z,59.36
2023-02-09T13:45:02.153Z,59.95
2023-02-09T13:46:37.325Z,59.91
2023-02-09T13:48:22.282Z,59.81
2023-02-09T13:49:59.475Z,59.55
2023-02-09T13:51:31.534Z,60.78
2023-02-09T13:53:10.673Z,59.28
2023-02-09T13:54:43.862Z,60.34
2023-02-09T13:56:16.045Z,60.54
2023-02-09T13:57:58.316Z,59.37
2023-02-09T13:59:30.555Z,59.67
2023-02-09T14:01:12.648Z,60.69
2023-02-09T14:02:50.346Z,60.14
2023-02-09T14:06:36.676Z,60.08
2023-02-09T14:08:09.422Z,60.08
2023-02-09T14:09:45.424Z,59.82
2023-02-09T14:11:44.112Z,59.63
2023-02-09T14:13:16.155Z,60.52
2023-02-09T14:15:13.560Z,60.41
2023-02-09T14:16:53.555Z,60.65
2023-02-09T14:18:30.692Z,59.51
2023-02-09T14:20:03.628Z,60.75
2023-02-09T14:21:37.784Z,60.25
2023-02-09T14:23:15.997Z,60.02
2023-02-09T14:24:48.047Z,60.23
2023-02-09T14:26:33.461Z,60.70
2023-02-09T14:28:05.687Z,60.98
2023-02-09T14:29:38.455Z,61.41
2023-02-09T14:34:38.437Z,61.52
2023-02-09T14:36:32.908Z,61.66
2023-02-09T14:38:04.953Z,61.80
2023-02-09T14:39:53.381Z,61.97
2023-02-09T14:41:33.774Z,61.80
2023-02-09T14:43:11.858Z,61.97
2023-02-09T14:45:15.782Z,62.29
2023-02-09T14:46:59.356Z,62.39
2023-02-09T14:48:33.746Z,63.53
2023-02-09T14:50:15.823Z,63.23
2023-02-09T14:51:49.430Z,62.35
2023-02-09T14:53:21.826Z,62.84
2023-02-09T14:54:53.848Z,62.42
2023-02-09T14:56:31.519Z,63.05
2023-02-09T14:58:11.499Z,63.03
2023-02-09T14:59:43.623Z,62.84
2023-02-09T15:01:15.849Z,63.33
2023-02-09T15:02:49.225Z,62.36
2023-02-09T15:04:21.588Z,62.34
2023-02-09T15:05:59.186Z,63.13
2023-02-09T15:07:38.074Z,63.19
2023-02-09T15:09:13.179Z,63.40
2023-02-09T15:10:48.062Z,63.39
2023-02-09T15:12:27.287Z,63.06
2023-02-09T15:14:06.807Z,63.41
2023-02-09T15:15:40.054Z,63.72
2023-02-09T15:17:20.822Z,63.13
2023-02-09T15:18:52.990Z,63.94
2023-02-09T15:20:25.806Z,63.80
2023-02-09T15:22:06.981Z,63.41
2023-02-09T15:23:40.067Z,63.89
2023-02-09T15:25:14.448Z,64.05
2023-02-09T15:26:46.535Z,63.96
2023-02-09T15:28:28.833Z,64.45
2023-02-09T15:30:04.289Z,65.00
2023-02-09T15:31:36.920Z,65.21
2023-02-09T15:33:12.844Z,64.73
2023-02-09T15:34:45.151Z,65.29
2023-02-09T15:36:21.146Z,64.75
2023-02-09T15:37:55.668Z,65.00
2023-02-09T15:39:31.696Z,64.80
2023-02-09T15:41:22.208Z,65.20
2023-02-09T15:43:12.774Z,64.75
2023-02-09T15:45:03.712Z,64.56
2023-02-09T15:46:55.603Z,65.08
2023-02-09T15:48:27.653Z,64.59
2023-02-09T15:49:59.635Z,65.53
2023-02-09T15:51:34.319Z,65.48
2023-02-09T15:53:08.812Z,65.29
2023-02-09T15:54:41.196Z,64.79
2023-02-09T15:56:14.076Z,64.86
2023-02-09T15:57:46.473Z,64.96
2023-02-09T15:59:20.496Z,64.97
2023-02-09T16:00:52.494Z,65.02
2023-02-09T16:02:25.920Z,64.80
2023-02-09T16:04:12.713Z,65.34
2023-02-09T16:05:47.392Z,65.59
2023-02-09T16:07:21.095Z,65.86
2023-02-09T16:08:53.832Z,65.95
2023-02-09T16:10:29.038Z,66.01
2023-02-09T16:12:01.038Z,65.70
2023-02-09T16:13:33.110Z,65.58
2023-02-09T16:15:14.607Z,65.48
2023-02-09T16:16:47.535Z,65.66
2023-02-09T16:18:19.762Z,65.84
2023-02-09T16:19:51.942Z,65.53
2023-02-09T16:21:24.683Z,64.88
2023-02-09T16:22:57.722Z,64.65
2023-02-09T16:24:33.842Z,64.86
2023-02-09T16:26:06.673Z,64.83
2023-02-09T16:27:38.840Z,64.77
2023-02-09T16:29:15.397Z,64.94
2023-02-09T16:30:52.347Z,64.83
2023-02-09T16:32:25.384Z,65.42
2023-02-09T16:33:57.449Z,64.75
2023-02-09T16:35:31.141Z,64.67
2023-02-09T16:37:04.297Z,65.33
2023-02-09T16:38:36.260Z,65.80
2023-02-09T16:40:17.138Z,65.56
2023-02-09T16:41:53.056Z,65.48
2023-02-09T16:43:25.265Z,66.11
2023-02-09T16:44:57.560Z,65.76
2023-02-09T16:46:31.068Z,65.67
2023-02-09T16:48:03.072Z,65.81
2023-02-09T16:49:38.194Z,65.91
2023-02-09T16:51:13.411Z,66.04
2023-02-09T16:52:45.485Z,65.77
2023-02-09T16:54:17.557Z,65.96
2023-02-09T16:55:50.086Z,66.07
2023-02-09T16:57:25.887Z,67.00
2023-02-09T16:58:57.928Z,67.77
2023-02-09T17:00:38.048Z,67.99
2023-02-09T17:02:39.732Z,68.06
2023-02-09T17:04:14.117Z,67.99
2023-02-09T17:05:49.118Z,68.02
2023-02-09T17:07:23.193Z,68.16
2023-02-09T17:08:56.915Z,68.05
2023-02-09T17:10:32.446Z,68.27
2023-02-09T17:12:04.614Z,68.64
2023-02-09T17:13:36.875Z,68.86
2023-02-09T17:15:27.503Z,69.12
2023-02-09T17:17:02.594Z,70.03
2023-02-09T17:18:39.563Z,70.36
2023-02-09T17:20:16.649Z,70.39
2023-02-09T17:21:48.862Z,70.89
2023-02-09T17:23:23.612Z,70.88
2023-02-09T17:24:55.735Z,70.79
2023-02-09T17:26:28.575Z,70.95
2023-02-09T17:28:00.642Z,70.97
2023-02-09T17:29:34.202Z,71.24
2023-02-09T17:32:58.960Z,71.25
2023-02-09T17:34:31.087Z,71.25
2023-02-09T17:36:25.363Z,71.15
2023-02-09T17:37:55.401Z,70.92
2023-02-09T17:39:28.964Z,70.88
2023-02-09T17:41:08.806Z,70.67
2023-02-09T17:42:41.398Z,70.66
2023-02-09T17:44:26.403Z,70.71
2023-02-09T17:46:00.949Z,71.18
2023-02-09T17:47:33.045Z,71.56
2023-02-09T17:49:05.080Z,71.70
2023-02-09T17:50:38.072Z,71.62
2023-02-09T17:52:18.211Z,71.41
2023-02-09T17:53:50.382Z,71.49
2023-02-09T17:55:26.484Z,71.61
2023-02-09T17:56:58.479Z,71.45
2023-02-09T17:58:30.577Z,71.47
2023-02-09T18:00:02.942Z,71.86
2023-02-09T18:01:46.319Z,72.12
2023-02-09T18:03:21.615Z,72.25
2023-02-09T18:04:54.319Z,72.32
2023-02-09T18:07:58.205Z,72.17
2023-02-09T18:09:30.294Z,72.53
2023-02-09T18:11:02.337Z,72.91
2023-02-09T18:12:34.394Z,72.96
2023-02-09T18:14:06.482Z,72.92
2023-02-09T18:15:40.782Z,72.98
2023-02-09T18:17:12.913Z,73.23
2023-02-09T18:18:47.233Z,73.63
2023-02-09T18:20:22.074Z,74.21
2023-02-09T18:22:00.280Z,74.59
2023-02-09T18:23:32.351Z,74.70
2023-02-09T18:25:04.453Z,74.51
2023-02-09T18:26:36.556Z,74.64
2023-02-09T18:28:08.848Z,74.85
2023-02-09T18:29:40.982Z,74.36
2023-02-09T18:31:16.565Z,74.40
2023-02-09T18:32:48.999Z,74.33
2023-02-09T18:34:21.102Z,74.63
2023-02-09T18:35:53.204Z,74.97
2023-02-09T18:37:25.294Z,75.31
2023-02-09T18:38:57.229Z,75.45
2023-02-09T18:40:29.810Z,75.72
2023-02-09T18:42:01.873Z,75.90
2023-02-09T18:43:33.899Z,76.09
2023-02-09T18:45:06.238Z,75.80
2023-02-09T18:46:38.282Z,75.89
2023-02-09T18:48:11.242Z,76.21
2023-02-09T18:49:43.278Z,76.30
2023-02-09T18:51:17.584Z,76.20
2023-02-09T18:52:52.507Z,76.31
2023-02-09T18:54:24.569Z,76.47
2023-02-09T18:55:56.779Z,76.53
2023-02-09T18:57:28.854Z,76.38
2023-02-09T18:59:00.952Z,76.32
2023-02-09T19:00:33.480Z,76.47
2023-02-09T19:02:05.782Z,76.46
2023-02-09T19:03:37.898Z,76.44
2023-02-09T19:05:10.238Z,76.59
2023-02-09T19:06:42.423Z,76.74
2023-02-09T19:08:14.868Z,76.76
2023-02-09T19:09:46.961Z,76.89
2023-02-09T19:11:21.646Z,76.77
2023-02-09T19:12:54.611Z,76.81
2023-02-09T19:14:38.912Z,76.46
2023-02-09T19:16:12.358Z,76.04
2023-02-09T19:17:45.233Z,76.03
2023-02-09T19:19:19.787Z,76.34
2023-02-09T19:20:55.894Z,76.46
2023-02-09T19:22:28.135Z,76.16
2023-02-09T19:24:00.269Z,75.89
2023-02-09T19:25:33.439Z,76.03
2023-02-09T19:27:07.100Z,75.77
2023-02-09T19:28:39.059Z,75.92
2023-02-09T19:30:14.354Z,76.03
2023-02-09T19:31:46.866Z,75.99
2023-02-09T19:33:18.916Z,76.27
2023-02-09T19:34:51.217Z,76.60
2023-02-09T19:36:24.638Z,76.85
2023-02-09T19:37:58.151Z,77.03
2023-02-09T19:39:32.697Z,76.78
2023-02-09T19:41:10.685Z,76.76
2023-02-09T19:42:42.999Z,76.92
2023-02-09T19:44:15.729Z,76.72
2023-02-09T19:45:56.297Z,77.00
2023-02-09T19:47:28.396Z,76.82
2023-02-09T19:49:01.262Z,76.81
2023-02-09T19:50:33.994Z,77.11
2023-02-09T19:52:06.668Z,77.70
2023-02-09T19:53:41.485Z,77.76
2023-02-09T19:55:14.319Z,77.64
2023-02-09T19:56:46.372Z,77.72
2023-02-09T19:58:21.696Z,77.92
2023-02-09T19:59:54.171Z,78.01
2023-02-09T20:01:27.194Z,78.09
2023-02-09T20:03:01.790Z,78.27
2023-02-09T20:04:35.170Z,78.13
2023-02-09T20:06:09.723Z,78.17
2023-02-09T20:07:42.011Z,77.53
2023-02-09T20:09:14.104Z,77.47
2023-02-09T20:10:46.680Z,77.29
2023-02-09T20:12:21.835Z,77.35
2023-02-09T20:13:54.850Z,77.35
2023-02-09T20:15:27.270Z,77.37
2023-02-09T20:16:59.326Z,77.23
2023-02-09T20:18:31.592Z,77.00
2023-02-09T20:20:04.557Z,77.47
2023-02-09T20:21:40.311Z,77.59
2023-02-09T20:23:12.330Z,77.62
2023-02-09T20:24:44.546Z,77.83
2023-02-09T20:26:19.318Z,77.99
2023-02-09T20:27:51.851Z,78.14
2023-02-09T20:29:23.970Z,78.23
2023-02-09T20:30:56.018Z,78.21
2023-02-09T20:32:29.199Z,78.43
2023-02-09T20:34:05.383Z,78.07
2023-02-09T20:37:10.814Z,78.26
2023-02-09T20:38:42.994Z,78.49
2023-02-09T20:40:15.225Z,78.56
2023-02-09T20:42:06.731Z,78.44
2023-02-09T20:43:58.141Z,78.48
2023-02-09T20:45:48.775Z,78.49
2023-02-09T20:47:20.791Z,78.64
2023-02-09T20:48:52.926Z,78.75
2023-02-09T20:50:25.071Z,78.90
2023-02-09T20:51:58.311Z,79.08
2023-02-09T20:53:30.330Z,79.08
2023-02-09T20:55:02.654Z,79.08
2023-02-09T20:56:37.730Z,79.00
2023-02-09T20:58:12.144Z,79.42
2023-02-09T20:59:44.393Z,79.41
2023-02-09T21:01:16.826Z,79.32
2023-02-09T21:02:48.951Z,79.43
2023-02-09T21:04:21.011Z,79.52